createdAt,value
2018-08-17T00:00:19.268Z,71.47
2018-08-17T00:02:12.205Z,71.37
2018-08-17T00:03:12.205Z,71.04
2018-08-17T00:05:05.118Z,71.53
2018-08-17T00:06:05.140Z,71.34
2018-08-17T00:07:58.078Z,71.43
2018-08-17T00:08:58.085Z,71.34
2018-08-17T00:10:50.997Z,71.34
2018-08-17T00:11:51.043Z,71.85
2018-08-17T00:13:43.959Z,71.28
2018-08-17T00:14:43.959Z,71.34
2018-08-17T00:16:36.866Z,71.53
2018-08-17T00:17:36.889Z,71.24
2018-08-17T00:19:29.820Z,72.11
2018-08-17T00:20:29.824Z,72.36
2018-08-17T00:22:22.761Z,71.97
2018-08-17T00:23:22.758Z,72.55
2018-08-17T00:25:16.162Z,72.55
2018-08-17T00:26:16.189Z,72.65
2018-08-17T00:28:09.124Z,72.55
2018-08-17T00:29:09.121Z,72.55
2018-08-17T00:31:02.035Z,71.88
2018-08-17T00:32:02.060Z,72.45
2018-08-17T00:33:54.994Z,71.88
2018-08-17T00:34:54.996Z,72.45
2018-08-17T00:36:47.912Z,72.36
2018-08-17T00:37:47.938Z,72.65
2018-08-17T00:39:40.877Z,72.36
2018-08-17T00:40:40.881Z,72.65
2018-08-17T00:42:33.813Z,72.17
2018-08-17T00:43:33.822Z,72.36
2018-08-17T00:45:26.729Z,72.84
2018-08-17T00:46:26.754Z,72.84
2018-08-17T00:48:19.683Z,74.19
2018-08-17T00:49:19.686Z,74.82
2018-08-17T00:51:12.599Z,74.25
2018-08-17T00:52:12.621Z,74.54
2018-08-17T00:54:05.551Z,74.82
2018-08-17T00:55:05.553Z,74.63
2018-08-17T00:56:58.476Z,74.92
2018-08-17T00:57:58.497Z,74.82
2018-08-17T00:59:51.430Z,75.59
2018-08-17T01:00:51.432Z,75.59
2018-08-17T01:02:44.505Z,75.59
2018-08-17T01:03:44.509Z,75.02
2018-08-17T01:05:37.637Z,74.82
2018-08-17T01:06:37.659Z,74.73
2018-08-17T01:08:30.593Z,74.92
2018-08-17T01:09:30.596Z,74.63
2018-08-17T01:11:23.509Z,74.34
2018-08-17T01:12:23.528Z,74.82
2018-08-17T01:14:16.465Z,74.92
2018-08-17T01:15:16.465Z,75.21
2018-08-17T01:17:09.374Z,75.59
2018-08-17T01:18:09.398Z,75.98
2018-08-17T01:20:02.341Z,75.88
2018-08-17T01:21:02.341Z,75.79
2018-08-17T01:22:55.273Z,75.88
2018-08-17T01:23:55.276Z,75.69
2018-08-17T01:25:48.187Z,75.98
2018-08-17T01:26:48.210Z,75.31
2018-08-17T01:28:41.142Z,75.31
2018-08-17T01:29:41.147Z,75.31
2018-08-17T01:31:34.057Z,75.31
2018-08-17T01:32:34.078Z,75.79
2018-08-17T01:34:27.011Z,75.84
2018-08-17T01:35:27.014Z,76.04
2018-08-17T01:37:20.123Z,76.14
2018-08-17T01:38:20.152Z,75.94
2018-08-17T01:40:13.082Z,76.14
2018-08-17T01:41:13.081Z,76.81
2018-08-17T01:43:06.015Z,76.52
2018-08-17T01:44:06.019Z,76.61
2018-08-17T01:45:58.929Z,76.52
2018-08-17T01:46:58.953Z,76.52
2018-08-17T01:48:51.886Z,76.52
2018-08-17T01:49:51.887Z,76.42
2018-08-17T01:51:44.799Z,76.42
2018-08-17T01:52:44.822Z,76.32
2018-08-17T01:54:37.759Z,76.81
2018-08-17T01:55:37.756Z,77.29
2018-08-17T01:57:30.668Z,76.81
2018-08-17T01:58:30.690Z,76.52
2018-08-17T02:00:23.623Z,76.23
2018-08-17T02:01:23.627Z,77.09
2018-08-17T02:03:16.560Z,77.00
2018-08-17T02:04:16.560Z,77.09
2018-08-17T02:06:09.479Z,76.42
2018-08-17T02:07:09.505Z,76.42
2018-08-17T02:09:02.437Z,76.14
2018-08-17T02:10:02.440Z,76.61
2018-08-17T02:11:55.352Z,77.19
2018-08-17T02:12:55.377Z,76.42
2018-08-17T02:14:48.364Z,76.90
2018-08-17T02:15:48.310Z,77.48
2018-08-17T02:17:41.223Z,77.29
2018-08-17T02:18:41.248Z,76.90
2018-08-17T02:20:34.179Z,77.48
2018-08-17T02:21:34.181Z,77.58
2018-08-17T02:23:27.121Z,77.34
2018-08-17T02:24:27.178Z,77.83
2018-08-17T02:26:20.030Z,77.25
2018-08-17T02:27:20.053Z,76.96
2018-08-17T02:29:12.995Z,77.73
2018-08-17T02:30:12.994Z,77.44
2018-08-17T02:32:05.902Z,77.53
2018-08-17T02:33:05.923Z,77.25
2018-08-17T02:34:58.864Z,77.44
2018-08-17T02:35:58.866Z,77.29
2018-08-17T02:37:51.774Z,77.19
2018-08-17T02:38:51.793Z,77.15
2018-08-17T02:40:44.731Z,76.81
2018-08-17T02:41:44.732Z,76.52
2018-08-17T02:43:37.670Z,76.52
2018-08-17T02:44:37.662Z,76.90
2018-08-17T02:46:30.576Z,77.09
2018-08-17T02:47:30.597Z,76.67
2018-08-17T02:49:23.532Z,76.96
2018-08-17T02:50:23.534Z,77.34
2018-08-17T02:52:16.450Z,76.67
2018-08-17T02:53:16.469Z,77.73
2018-08-17T02:55:09.400Z,77.73
2018-08-17T02:56:09.403Z,77.44
2018-08-17T02:58:02.314Z,78.21
2018-08-17T02:59:02.338Z,78.30
2018-08-17T03:00:55.267Z,79.42
2018-08-17T03:01:55.269Z,80.38
2018-08-17T03:03:48.211Z,81.01
2018-08-17T03:04:48.202Z,81.10
2018-08-17T03:06:41.117Z,80.91
2018-08-17T03:07:41.136Z,80.82
2018-08-17T03:09:34.068Z,81.49
2018-08-17T03:10:34.071Z,81.97
2018-08-17T03:12:26.983Z,81.68
2018-08-17T03:13:27.010Z,81.78
2018-08-17T03:15:19.941Z,81.68
2018-08-17T03:16:19.943Z,81.49
2018-08-17T03:18:12.849Z,81.87
2018-08-17T03:19:12.872Z,82.07
2018-08-17T03:21:05.814Z,82.07
2018-08-17T03:22:05.814Z,82.54
2018-08-17T03:23:58.720Z,82.45
2018-08-17T03:24:58.739Z,82.45
2018-08-17T03:26:51.669Z,82.45
2018-08-17T03:27:51.669Z,82.45
2018-08-17T03:29:44.610Z,82.64
2018-08-17T03:30:44.603Z,82.84
2018-08-17T03:32:37.513Z,82.74
2018-08-17T03:33:37.536Z,82.84
2018-08-17T03:35:30.468Z,82.64
2018-08-17T03:36:30.469Z,83.22
2018-08-17T03:38:23.379Z,82.54
2018-08-17T03:39:23.401Z,83.89
2018-08-17T03:41:16.334Z,83.89
2018-08-17T03:42:16.335Z,83.80
2018-08-17T03:44:09.243Z,84.37
2018-08-17T03:45:09.267Z,84.18
2018-08-17T03:47:02.198Z,83.89
2018-08-17T03:48:02.199Z,83.89
2018-08-17T03:49:55.130Z,83.70
2018-08-17T03:50:55.131Z,83.31
2018-08-17T03:52:48.041Z,83.41
2018-08-17T03:53:48.062Z,83.41
2018-08-17T03:55:40.994Z,83.64
2018-08-17T03:56:40.997Z,82.68
2018-08-17T03:58:33.953Z,83.07
2018-08-17T03:59:33.925Z,82.87
2018-08-17T04:01:26.857Z,82.49
2018-08-17T04:02:26.857Z,82.40
2018-08-17T04:04:19.773Z,81.86
2018-08-17T04:05:19.790Z,81.57
2018-08-17T04:07:12.732Z,81.53
2018-08-17T04:08:12.735Z,81.82
2018-08-17T04:10:05.658Z,81.86
2018-08-17T04:11:05.661Z,81.57
2018-08-17T04:12:58.569Z,81.67
2018-08-17T04:13:58.592Z,81.67
2018-08-17T04:15:51.523Z,81.34
2018-08-17T04:16:51.528Z,82.01
2018-08-17T04:18:44.484Z,81.63
2018-08-17T04:19:44.457Z,81.63
2018-08-17T04:21:37.391Z,81.48
2018-08-17T04:22:37.395Z,81.53
2018-08-17T04:24:30.448Z,81.19
2018-08-17T04:25:30.468Z,81.28
2018-08-17T04:27:23.620Z,81.38
2018-08-17T04:28:23.625Z,81.09
2018-08-17T04:30:16.554Z,81.28
2018-08-17T04:31:16.556Z,80.90
2018-08-17T04:33:09.466Z,80.27
2018-08-17T04:34:09.488Z,80.36
2018-08-17T04:36:02.431Z,80.27
2018-08-17T04:37:02.426Z,80.36
2018-08-17T04:38:55.331Z,79.50
2018-08-17T04:39:55.352Z,79.69
2018-08-17T04:41:48.295Z,78.92
2018-08-17T04:42:48.296Z,79.05
2018-08-17T04:44:41.201Z,78.77
2018-08-17T04:45:41.225Z,78.28
2018-08-17T04:47:34.155Z,78.38
2018-08-17T04:48:34.159Z,78.00
2018-08-17T04:50:27.091Z,78.28
2018-08-17T04:51:27.108Z,78.09
2018-08-17T04:53:20.003Z,78.09
2018-08-17T04:54:20.023Z,78.00
2018-08-17T04:56:12.965Z,77.61
2018-08-17T04:57:12.970Z,77.51
2018-08-17T04:59:05.879Z,77.42
2018-08-17T05:00:05.906Z,77.51
2018-08-17T05:01:58.835Z,77.17
2018-08-17T05:02:58.837Z,77.17
2018-08-17T05:04:51.910Z,76.78
2018-08-17T05:05:51.932Z,76.98
2018-08-17T05:07:44.874Z,76.78
2018-08-17T05:08:44.906Z,77.46
2018-08-17T05:10:37.799Z,76.69
2018-08-17T05:11:37.802Z,76.88
2018-08-17T05:13:30.715Z,76.31
2018-08-17T05:14:30.740Z,76.53
2018-08-17T05:16:23.669Z,76.53
2018-08-17T05:17:23.692Z,76.44
2018-08-17T05:19:16.781Z,75.86
2018-08-17T05:20:16.813Z,76.53
2018-08-17T05:22:09.750Z,76.63
2018-08-17T05:23:09.798Z,76.15
2018-08-17T05:25:02.662Z,75.76
2018-08-17T05:26:02.683Z,76.15
2018-08-17T05:27:55.617Z,75.67
2018-08-17T05:28:55.620Z,75.57
2018-08-17T05:30:48.552Z,75.57
2018-08-17T05:31:48.555Z,75.67
2018-08-17T05:33:41.471Z,75.67
2018-08-17T05:34:41.491Z,74.61
2018-08-17T05:36:34.509Z,74.32
2018-08-17T05:37:34.424Z,74.22
2018-08-17T05:39:27.339Z,74.32
2018-08-17T05:40:27.367Z,74.32
2018-08-17T05:42:20.437Z,74.61
2018-08-17T05:43:20.441Z,74.61
2018-08-17T05:45:13.380Z,74.41
2018-08-17T05:46:13.385Z,74.13
2018-08-17T05:48:06.327Z,73.49
2018-08-17T05:49:06.321Z,73.78
2018-08-17T05:50:59.269Z,72.81
2018-08-17T05:51:59.258Z,72.97
2018-08-17T05:53:52.176Z,72.91
2018-08-17T05:54:52.202Z,73.10
2018-08-17T05:56:45.193Z,73.20
2018-08-17T05:57:45.135Z,73.26
2018-08-17T05:59:38.058Z,73.10
2018-08-17T06:00:38.072Z,73.01
2018-08-17T06:02:31.006Z,73.10
2018-08-17T06:03:31.011Z,73.10
2018-08-17T06:05:24.139Z,72.81
2018-08-17T06:06:24.163Z,73.10
2018-08-17T06:08:17.096Z,72.53
2018-08-17T06:09:17.098Z,72.53
2018-08-17T06:11:10.158Z,72.81
2018-08-17T06:12:10.043Z,72.53
2018-08-17T06:14:02.951Z,72.05
2018-08-17T06:15:02.973Z,71.66
2018-08-17T06:16:55.907Z,71.70
2018-08-17T06:17:55.916Z,71.41
2018-08-17T06:19:49.318Z,71.41
2018-08-17T06:20:49.390Z,71.22
2018-08-17T06:22:42.286Z,70.73
2018-08-17T06:23:42.295Z,70.15
2018-08-17T06:25:35.199Z,69.90
2018-08-17T06:26:35.220Z,69.80
2018-08-17T06:28:28.155Z,69.23
2018-08-17T06:29:28.161Z,68.55
2018-08-17T06:31:21.096Z,69.42
2018-08-17T06:32:21.101Z,68.74
2018-08-17T06:34:14.011Z,68.39
2018-08-17T06:35:14.034Z,67.91
2018-08-17T06:37:07.513Z,68.01
2018-08-17T06:38:07.467Z,67.52
2018-08-17T06:40:00.406Z,66.94
2018-08-17T06:41:00.409Z,66.94
2018-08-17T06:42:53.343Z,66.66
2018-08-17T06:43:53.350Z,66.94
2018-08-17T06:45:46.269Z,66.36
2018-08-17T06:46:46.292Z,66.66
2018-08-17T06:48:39.222Z,66.08
2018-08-17T06:49:39.227Z,66.46
2018-08-17T06:51:32.215Z,66.66
2018-08-17T06:52:32.172Z,66.85
2018-08-17T06:54:25.575Z,66.17
2018-08-17T06:55:25.600Z,65.88
2018-08-17T06:57:19.110Z,65.78
2018-08-17T06:58:19.035Z,66.08
2018-08-17T07:00:11.961Z,66.08
2018-08-17T07:01:12.008Z,66.56
2018-08-17T07:03:04.910Z,66.46
2018-08-17T07:04:04.913Z,66.27
2018-08-17T07:05:57.834Z,67.04
2018-08-17T07:06:57.854Z,67.23
2018-08-17T07:08:51.081Z,67.10
2018-08-17T07:09:51.014Z,67.00
2018-08-17T07:11:43.950Z,68.07
2018-08-17T07:12:43.945Z,68.16
2018-08-17T07:14:36.860Z,68.07
2018-08-17T07:15:36.888Z,67.97
2018-08-17T07:17:29.829Z,67.40
2018-08-17T07:18:29.830Z,68.16
2018-08-17T07:20:22.740Z,68.07
2018-08-17T07:21:22.765Z,67.88
2018-08-17T07:23:15.699Z,69.03
2018-08-17T07:24:15.702Z,68.55
2018-08-17T07:26:08.618Z,67.88
2018-08-17T07:27:08.638Z,68.16
2018-08-17T07:29:01.780Z,67.43
2018-08-17T07:30:01.792Z,67.49
2018-08-17T07:31:54.728Z,67.88
2018-08-17T07:32:54.730Z,67.91
2018-08-17T07:34:47.652Z,67.43
2018-08-17T07:35:47.706Z,67.52
2018-08-17T07:37:40.619Z,67.71
2018-08-17T07:38:40.624Z,67.81
2018-08-17T07:40:33.538Z,67.33
2018-08-17T07:41:33.579Z,67.81
2018-08-17T07:43:26.500Z,67.52
2018-08-17T07:44:26.503Z,67.33
2018-08-17T07:46:19.424Z,67.43
2018-08-17T07:47:19.447Z,67.52
2018-08-17T07:49:12.559Z,67.52
2018-08-17T07:50:12.564Z,67.81
2018-08-17T07:52:05.512Z,67.71
2018-08-17T07:53:05.509Z,67.62
2018-08-17T07:54:58.424Z,68.49
2018-08-17T07:55:58.453Z,68.77
2018-08-17T07:57:51.529Z,68.74
2018-08-17T07:58:51.536Z,69.80
2018-08-17T08:00:44.447Z,70.00
2018-08-17T08:01:44.478Z,70.28
2018-08-17T08:03:37.410Z,70.48
2018-08-17T08:04:37.417Z,71.25
2018-08-17T08:06:30.326Z,71.79
2018-08-17T08:07:30.359Z,71.89
2018-08-17T08:09:23.778Z,72.56
2018-08-17T08:10:23.784Z,72.85
2018-08-17T08:12:16.721Z,73.14
2018-08-17T08:13:16.728Z,73.72
2018-08-17T08:15:09.639Z,74.01
2018-08-17T08:16:09.661Z,74.30
2018-08-17T08:18:02.606Z,75.45
2018-08-17T08:19:02.606Z,75.74
2018-08-17T08:20:55.526Z,77.19
2018-08-17T08:21:55.550Z,76.71
2018-08-17T08:23:48.481Z,77.09
2018-08-17T08:24:48.491Z,77.19
2018-08-17T08:26:41.401Z,77.58
2018-08-17T08:27:41.424Z,77.00
2018-08-17T08:29:34.357Z,78.83
2018-08-17T08:30:34.363Z,79.11
2018-08-17T08:32:27.317Z,79.21
2018-08-17T08:33:27.305Z,79.21
2018-08-17T08:35:20.220Z,77.73
2018-08-17T08:36:20.245Z,78.40
2018-08-17T08:38:13.176Z,78.69
2018-08-17T08:39:13.179Z,79.94
2018-08-17T08:41:06.098Z,80.87
2018-08-17T08:42:06.125Z,81.45
2018-08-17T08:43:59.059Z,81.98
2018-08-17T08:44:59.061Z,82.37
2018-08-17T08:46:51.974Z,83.23
2018-08-17T08:47:52.003Z,82.85
2018-08-17T08:49:44.934Z,83.04
2018-08-17T08:50:44.943Z,82.89
2018-08-17T08:52:37.872Z,83.66
2018-08-17T08:53:37.880Z,84.43
2018-08-17T08:55:30.799Z,84.53
2018-08-17T08:56:30.818Z,84.91
2018-08-17T08:58:23.747Z,84.81
2018-08-17T08:59:23.751Z,84.81
2018-08-17T09:01:16.670Z,84.81
2018-08-17T09:02:16.696Z,84.72
2018-08-17T09:04:09.627Z,83.56
2018-08-17T09:05:09.637Z,83.75
2018-08-17T09:07:02.545Z,83.18
2018-08-17T09:08:02.611Z,83.18
2018-08-17T09:09:55.501Z,83.31
2018-08-17T09:10:55.506Z,83.41
2018-08-17T09:12:48.455Z,82.45
2018-08-17T09:13:48.523Z,82.54
2018-08-17T09:15:41.365Z,82.35
2018-08-17T09:16:41.392Z,81.91
2018-08-17T09:18:34.558Z,81.24
2018-08-17T09:19:34.564Z,80.94
2018-08-17T09:21:27.485Z,79.35
2018-08-17T09:22:27.508Z,80.02
2018-08-17T09:24:20.442Z,79.87
2018-08-17T09:25:20.450Z,78.96
2018-08-17T09:27:13.364Z,77.75
2018-08-17T09:28:13.390Z,78.23
2018-08-17T09:30:06.364Z,77.11
2018-08-17T09:31:06.336Z,75.76
2018-08-17T09:32:59.289Z,76.92
2018-08-17T09:33:59.281Z,76.76
2018-08-17T09:35:52.230Z,77.19
2018-08-17T09:36:52.226Z,75.54
2018-08-17T09:38:45.162Z,73.94
2018-08-17T09:39:45.168Z,72.39
2018-08-17T09:41:38.134Z,72.49
2018-08-17T09:42:38.113Z,72.58
2018-08-17T09:44:31.057Z,72.81
2018-08-17T09:45:31.058Z,73.59
2018-08-17T09:47:23.979Z,71.08
2018-08-17T09:48:24.005Z,70.53
2018-08-17T09:50:16.947Z,71.78
2018-08-17T09:51:17.007Z,70.62
2018-08-17T09:53:09.869Z,68.40
2018-08-17T09:54:09.895Z,67.53
2018-08-17T09:56:02.833Z,67.98
2018-08-17T09:57:02.841Z,68.56
2018-08-17T09:58:55.787Z,69.78
2018-08-17T09:59:55.786Z,70.46
2018-08-17T10:01:48.710Z,70.46
2018-08-17T10:02:48.735Z,69.94
2018-08-17T10:04:41.681Z,70.62
2018-08-17T10:05:41.682Z,71.10
2018-08-17T10:07:34.603Z,70.62
2018-08-17T10:08:34.629Z,69.56
2018-08-17T10:10:27.567Z,71.68
2018-08-17T10:11:27.576Z,72.39
2018-08-17T10:13:20.493Z,72.45
2018-08-17T10:14:20.519Z,72.64
2018-08-17T10:16:13.457Z,72.64
2018-08-17T10:17:13.490Z,72.64
2018-08-17T10:19:06.584Z,73.38
2018-08-17T10:20:06.591Z,73.67
2018-08-17T10:22:00.078Z,73.83
2018-08-17T10:22:59.747Z,74.25
2018-08-17T10:24:52.694Z,74.21
2018-08-17T10:25:52.695Z,73.44
2018-08-17T10:27:45.836Z,72.58
2018-08-17T10:28:45.867Z,72.96
2018-08-17T10:30:38.809Z,73.44
2018-08-17T10:31:38.815Z,73.77
2018-08-17T10:33:31.728Z,73.28
2018-08-17T10:34:31.757Z,73.48
2018-08-17T10:36:24.699Z,73.22
2018-08-17T10:37:24.702Z,72.36
2018-08-17T10:39:17.641Z,71.39
2018-08-17T10:40:17.648Z,70.81
2018-08-17T10:42:10.572Z,71.04
2018-08-17T10:43:10.599Z,70.68
2018-08-17T10:45:03.539Z,69.33
2018-08-17T10:46:03.546Z,68.66
2018-08-17T10:47:56.464Z,67.53
2018-08-17T10:48:56.566Z,67.11
2018-08-17T10:50:49.432Z,66.43
2018-08-17T10:51:49.440Z,65.95
2018-08-17T10:53:42.356Z,65.75
2018-08-17T10:54:42.384Z,67.21
2018-08-17T10:56:35.319Z,65.95
2018-08-17T10:57:35.343Z,65.27
2018-08-17T10:59:28.265Z,64.62
2018-08-17T11:00:28.276Z,65.40
2018-08-17T11:02:21.194Z,65.20
2018-08-17T11:03:21.220Z,64.43
2018-08-17T11:05:15.167Z,63.98
2018-08-17T11:06:15.171Z,64.07
2018-08-17T11:08:08.094Z,63.40
2018-08-17T11:09:08.119Z,63.21
2018-08-17T11:11:01.154Z,64.30
2018-08-17T11:12:01.070Z,63.43
2018-08-17T11:13:53.999Z,63.92
2018-08-17T11:14:54.027Z,64.50
2018-08-17T11:16:46.975Z,64.30
2018-08-17T11:17:46.979Z,64.11
2018-08-17T11:19:39.929Z,64.20
2018-08-17T11:20:39.933Z,63.82
2018-08-17T11:22:33.848Z,63.43
2018-08-17T11:23:33.878Z,64.20
2018-08-17T11:25:26.890Z,62.56
2018-08-17T11:26:26.899Z,63.69
2018-08-17T11:28:19.817Z,63.89
2018-08-17T11:29:19.849Z,63.76
2018-08-17T11:31:12.840Z,63.85
2018-08-17T11:32:12.796Z,63.76
2018-08-17T11:34:05.717Z,64.62
2018-08-17T11:35:05.743Z,65.69
2018-08-17T11:36:58.689Z,66.91
2018-08-17T11:37:58.692Z,67.21
2018-08-17T11:39:51.633Z,67.21
2018-08-17T11:40:51.639Z,67.01
2018-08-17T11:42:44.564Z,67.40
2018-08-17T11:43:44.588Z,67.59
2018-08-17T11:45:37.535Z,66.85
2018-08-17T11:46:37.537Z,66.47
2018-08-17T11:48:30.606Z,66.82
2018-08-17T11:49:30.632Z,66.05
2018-08-17T11:51:23.575Z,66.94
2018-08-17T11:52:23.581Z,67.46
2018-08-17T11:54:16.509Z,67.72
2018-08-17T11:55:16.531Z,68.88
2018-08-17T11:57:09.471Z,69.26
2018-08-17T11:58:09.516Z,69.74
2018-08-17T12:00:02.428Z,69.36
2018-08-17T12:01:02.480Z,69.56
2018-08-17T12:02:55.360Z,70.04
2018-08-17T12:03:55.435Z,69.56
2018-08-17T12:05:48.312Z,70.42
2018-08-17T12:06:48.324Z,69.74
2018-08-17T12:08:41.363Z,70.32
2018-08-17T12:09:41.276Z,70.04
2018-08-17T12:11:34.226Z,68.04
2018-08-17T12:12:34.223Z,67.66
2018-08-17T12:14:27.147Z,68.27
2018-08-17T12:15:27.174Z,67.79
2018-08-17T12:17:20.123Z,66.98
2018-08-17T12:18:20.125Z,67.01
2018-08-17T12:20:13.067Z,66.33
2018-08-17T12:21:13.079Z,65.75
2018-08-17T12:23:05.992Z,65.75
2018-08-17T12:24:06.033Z,65.79
2018-08-17T12:25:58.961Z,65.01
2018-08-17T12:26:58.969Z,64.72
2018-08-17T12:28:51.886Z,65.11
2018-08-17T12:29:51.916Z,64.43
2018-08-17T12:31:44.856Z,63.66
2018-08-17T12:32:44.864Z,64.34
2018-08-17T12:34:37.786Z,64.07
2018-08-17T12:35:37.810Z,62.92
2018-08-17T12:37:30.751Z,61.56
2018-08-17T12:38:30.761Z,62.11
2018-08-17T12:40:23.700Z,62.30
2018-08-17T12:41:23.753Z,63.37
2018-08-17T12:43:16.662Z,62.59
2018-08-17T12:44:16.659Z,62.63
2018-08-17T12:46:09.608Z,62.04
2018-08-17T12:47:09.608Z,62.24
2018-08-17T12:49:02.733Z,62.63
2018-08-17T12:50:02.764Z,62.17
2018-08-17T12:51:55.717Z,61.40
2018-08-17T12:52:55.724Z,61.88
2018-08-17T12:54:48.650Z,60.43
2018-08-17T12:55:48.672Z,60.14
2018-08-17T12:57:41.616Z,60.46
2018-08-17T12:58:41.623Z,60.91
2018-08-17T13:00:34.602Z,59.78
2018-08-17T13:01:34.578Z,59.75
2018-08-17T13:03:27.496Z,60.30
2018-08-17T13:04:27.537Z,61.56
2018-08-17T13:06:20.464Z,62.98
2018-08-17T13:07:20.477Z,63.56
2018-08-17T13:09:13.396Z,63.66
2018-08-17T13:10:13.422Z,64.04
2018-08-17T13:12:06.431Z,63.01
2018-08-17T13:13:06.376Z,63.37
2018-08-17T13:14:59.299Z,62.43
2018-08-17T13:15:59.326Z,63.69
2018-08-17T13:17:52.265Z,61.79
2018-08-17T13:18:52.274Z,61.21
2018-08-17T13:20:45.221Z,60.62
2018-08-17T13:21:45.223Z,59.84
2018-08-17T13:23:38.146Z,59.91
2018-08-17T13:24:38.173Z,60.69
2018-08-17T13:26:31.126Z,61.53
2018-08-17T13:27:31.123Z,62.24
2018-08-17T13:29:24.051Z,60.95
2018-08-17T13:30:24.077Z,62.11
2018-08-17T13:32:17.027Z,62.11
2018-08-17T13:33:17.030Z,62.66
2018-08-17T13:35:09.955Z,62.66
2018-08-17T13:36:10.062Z,63.89
2018-08-17T13:38:02.945Z,65.43
2018-08-17T13:39:02.971Z,66.30
2018-08-17T13:40:56.368Z,67.01
2018-08-17T13:41:56.376Z,66.98
2018-08-17T13:43:49.295Z,66.91
2018-08-17T13:44:49.423Z,67.01
2018-08-17T13:46:42.614Z,67.24
2018-08-17T13:47:42.299Z,66.95
2018-08-17T13:49:35.223Z,67.24
2018-08-17T13:50:35.253Z,66.56
2018-08-17T13:52:28.230Z,65.37
2018-08-17T13:53:28.228Z,66.05
2018-08-17T13:55:21.207Z,66.24
2018-08-17T13:56:21.201Z,65.75
2018-08-17T13:58:14.169Z,66.43
2018-08-17T13:59:14.168Z,66.43
2018-08-17T14:01:07.147Z,66.14
2018-08-17T14:02:07.239Z,65.75
2018-08-17T14:04:00.059Z,66.24
2018-08-17T14:05:00.105Z,65.66
2018-08-17T14:06:53.047Z,64.50
2018-08-17T14:07:53.055Z,64.62
2018-08-17T14:09:45.979Z,64.53
2018-08-17T14:10:46.008Z,64.43
2018-08-17T14:12:39.034Z,63.56
2018-08-17T14:13:38.984Z,63.49
2018-08-17T14:15:33.469Z,62.63
2018-08-17T14:16:33.431Z,62.69
2018-08-17T14:18:26.405Z,62.43
2018-08-17T14:19:26.382Z,62.43
2018-08-17T14:21:19.329Z,62.63
2018-08-17T14:22:19.334Z,61.95
2018-08-17T14:24:12.464Z,62.14
2018-08-17T14:25:12.495Z,62.34
2018-08-17T14:27:05.433Z,61.85
2018-08-17T14:28:05.442Z,60.98
2018-08-17T14:29:58.359Z,61.56
2018-08-17T14:30:58.391Z,61.56
2018-08-17T14:32:51.340Z,61.79
2018-08-17T14:33:51.340Z,60.62
2018-08-17T14:35:44.268Z,60.59
2018-08-17T14:36:44.352Z,60.98
2018-08-17T14:38:37.551Z,61.33
2018-08-17T14:39:37.553Z,61.76
2018-08-17T14:41:30.496Z,60.69
2018-08-17T14:42:30.556Z,60.78
2018-08-17T14:44:23.423Z,60.59
2018-08-17T14:45:23.451Z,60.57
2018-08-17T14:48:16.491Z,61.43
2018-08-17T14:50:09.324Z,61.33
2018-08-17T14:51:09.348Z,60.85
2018-08-17T14:53:02.297Z,61.15
2018-08-17T14:54:02.359Z,61.05
2018-08-17T14:55:56.221Z,60.88
2018-08-17T14:56:56.277Z,60.88
2018-08-17T14:58:49.186Z,60.30
2018-08-17T14:59:49.196Z,60.11
2018-08-17T15:01:42.136Z,59.82
2018-08-17T15:02:42.143Z,59.82
2018-08-17T15:04:35.061Z,59.14
2018-08-17T15:05:35.090Z,59.53
2018-08-17T15:07:28.032Z,60.01
2018-08-17T15:08:28.038Z,60.11
2018-08-17T15:10:20.963Z,58.85
2018-08-17T15:11:20.983Z,58.49
2018-08-17T15:13:14.008Z,58.88
2018-08-17T15:14:13.933Z,58.95
2018-08-17T15:16:06.855Z,60.01
2018-08-17T15:17:06.881Z,59.59
2018-08-17T15:18:59.821Z,59.33
2018-08-17T15:19:59.833Z,59.05
2018-08-17T15:21:52.792Z,55.43
2018-08-17T15:22:52.774Z,55.63
2018-08-17T15:24:45.692Z,56.04
2018-08-17T15:25:45.725Z,55.63
2018-08-17T15:27:41.158Z,58.14
2018-08-17T15:28:38.685Z,58.34
2018-08-17T15:30:31.613Z,58.75
2018-08-17T15:31:31.640Z,59.05
2018-08-17T15:33:26.932Z,56.52
2018-08-17T15:34:26.946Z,57.20
2018-08-17T15:36:19.807Z,53.04
2018-08-17T15:37:19.833Z,51.32
2018-08-17T15:39:12.775Z,51.72
2018-08-17T15:40:12.782Z,51.52
2018-08-17T15:42:05.720Z,51.42
2018-08-17T15:43:05.728Z,52.39
2018-08-17T15:44:58.647Z,53.26
2018-08-17T15:45:58.676Z,53.36
2018-08-17T15:47:51.614Z,51.13
2018-08-17T15:48:51.626Z,51.62
2018-08-17T15:50:44.539Z,51.90
2018-08-17T15:51:44.604Z,51.52
2018-08-17T15:53:37.510Z,52.10
2018-08-17T15:54:37.515Z,52.00
2018-08-17T15:56:30.438Z,52.20
2018-08-17T15:57:30.488Z,52.20
2018-08-17T15:59:23.400Z,51.45
2018-08-17T16:00:23.418Z,51.25
2018-08-17T16:02:16.381Z,50.67
2018-08-17T16:03:16.355Z,51.54
2018-08-17T16:05:09.275Z,49.97
2018-08-17T16:06:09.303Z,50.55
2018-08-17T16:08:02.249Z,49.77
2018-08-17T16:09:02.252Z,49.87
2018-08-17T16:10:55.171Z,49.75
2018-08-17T16:11:55.197Z,50.33
2018-08-17T16:13:48.143Z,49.85
2018-08-17T16:14:48.146Z,49.75
2018-08-17T16:16:41.066Z,49.65
2018-08-17T16:17:41.092Z,48.59
2018-08-17T16:19:34.052Z,49.73
2018-08-17T16:20:34.038Z,50.40
2018-08-17T16:22:26.984Z,51.08
2018-08-17T16:23:26.992Z,51.47
2018-08-17T16:25:19.911Z,52.53
2018-08-17T16:26:19.938Z,53.41
2018-08-17T16:28:12.873Z,53.67
2018-08-17T16:29:12.884Z,53.67
2018-08-17T16:31:05.798Z,53.57
2018-08-17T16:32:05.827Z,54.05
2018-08-17T16:33:58.758Z,53.41
2018-08-17T16:34:58.770Z,53.31
2018-08-17T16:36:51.683Z,52.44
2018-08-17T16:37:51.713Z,51.98
2018-08-17T16:39:44.644Z,50.92
2018-08-17T16:40:44.656Z,50.62
2018-08-17T16:42:37.599Z,50.82
2018-08-17T16:43:37.598Z,50.82
2018-08-17T16:45:30.513Z,51.10
2018-08-17T16:46:30.556Z,49.65
2018-08-17T16:48:23.486Z,50.24
2018-08-17T16:49:23.491Z,50.62
2018-08-17T16:51:16.408Z,49.85
2018-08-17T16:52:16.435Z,49.56
2018-08-17T16:54:09.373Z,49.39
2018-08-17T16:55:09.386Z,48.61
2018-08-17T16:57:02.302Z,48.81
2018-08-17T16:58:02.325Z,48.61
2018-08-17T16:59:55.255Z,47.94
2018-08-17T17:00:55.299Z,48.79
2018-08-17T17:02:48.217Z,49.07
2018-08-17T17:03:48.210Z,48.59
2018-08-17T17:05:41.123Z,49.65
2018-08-17T17:06:41.155Z,49.37
2018-08-17T17:08:34.096Z,48.69
2018-08-17T17:09:34.098Z,48.69
2018-08-17T17:11:28.017Z,48.59
2018-08-17T17:12:28.045Z,48.61
2018-08-17T17:14:20.980Z,47.94
2018-08-17T17:15:20.989Z,47.84
2018-08-17T17:17:13.900Z,47.33
2018-08-17T17:18:13.927Z,47.52
2018-08-17T17:20:06.898Z,47.24
2018-08-17T17:21:06.876Z,47.24
2018-08-17T17:22:59.826Z,46.94
2018-08-17T17:23:59.824Z,46.94
2018-08-17T17:25:52.736Z,47.14
2018-08-17T17:26:52.781Z,47.33
2018-08-17T17:28:45.702Z,47.91
2018-08-17T17:29:45.710Z,47.24
2018-08-17T17:31:38.624Z,46.94
2018-08-17T17:32:38.652Z,46.84
2018-08-17T17:34:31.597Z,46.94
2018-08-17T17:35:31.597Z,46.94
2018-08-17T17:37:24.514Z,46.94
2018-08-17T17:38:24.542Z,46.73
2018-08-17T17:40:17.520Z,46.94
2018-08-17T17:41:17.507Z,47.02
2018-08-17T17:43:10.455Z,46.46
2018-08-17T17:44:10.451Z,45.86
2018-08-17T17:46:03.400Z,45.95
2018-08-17T17:47:03.440Z,45.78
2018-08-17T17:48:56.493Z,45.66
2018-08-17T17:49:56.400Z,46.08
2018-08-17T17:51:49.611Z,45.88
2018-08-17T17:52:49.600Z,45.78
2018-08-17T17:54:42.549Z,45.88
2018-08-17T17:55:42.555Z,45.88
2018-08-17T17:57:35.986Z,46.08
2018-08-17T17:58:36.019Z,45.88
2018-08-17T18:00:28.961Z,46.26
2018-08-17T18:01:28.968Z,46.34
2018-08-17T18:03:22.413Z,46.25
2018-08-17T18:04:22.402Z,45.95
2018-08-17T18:06:15.324Z,47.11
2018-08-17T18:07:15.350Z,46.92
2018-08-17T18:09:08.285Z,46.92
2018-08-17T18:10:08.294Z,46.92
2018-08-17T18:12:01.209Z,47.11
2018-08-17T18:13:01.303Z,46.83
2018-08-17T18:14:54.172Z,47.50
2018-08-17T18:15:54.180Z,47.41
2018-08-17T18:17:47.099Z,47.69
2018-08-17T18:18:47.118Z,47.89
2018-08-17T18:20:40.071Z,48.54
2018-08-17T18:21:40.065Z,48.54
2018-08-17T18:23:33.013Z,48.64
2018-08-17T18:24:33.013Z,49.12
2018-08-17T18:26:25.934Z,50.18
2018-08-17T18:27:25.956Z,50.55
2018-08-17T18:29:18.889Z,51.32
2018-08-17T18:30:18.900Z,51.23
2018-08-17T18:32:11.823Z,51.13
2018-08-17T18:33:11.847Z,51.32
2018-08-17T18:35:04.838Z,52.17